sensor_id;sensor_type;location;lat;lon;timestamp;P1;durP1;ratioP1;P2;durP2;ratioP2
21299;SDS011;10809;49.476;11.016;2024-01-07T00:00:21;3.10;;;2.73;;
21299;SDS011;10809;49.476;11.016;2024-01-07T00:02:51;5.10;;;3.67;;
21299;SDS011;10809;49.476;11.016;2024-01-07T00:05:22;5.07;;;3.10;;
21299;SDS011;10809;49.476;11.016;2024-01-07T00:07:52;4.10;;;3.40;;
21299;SDS011;10809;49.476;11.016;2024-01-07T00:10:22;4.67;;;3.07;;
21299;SDS011;10809;49.476;11.016;2024-01-07T00:12:53;3.07;;;2.77;;
21299;SDS011;10809;49.476;11.016;2024-01-07T00:15:23;3.23;;;2.93;;
21299;SDS011;10809;49.476;11.016;2024-01-07T00:17:56;3.93;;;2.90;;
21299;SDS011;10809;49.476;11.016;2024-01-07T00:20:27;3.10;;;2.87;;
21299;SDS011;10809;49.476;11.016;2024-01-07T00:22:57;3.23;;;2.93;;
21299;SDS011;10809;49.476;11.016;2024-01-07T00:25:27;3.10;;;2.90;;
21299;SDS011;10809;49.476;11.016;2024-01-07T00:27:58;3.57;;;2.60;;
21299;SDS011;10809;49.476;11.016;2024-01-07T00:30:28;3.33;;;3.03;;
21299;SDS011;10809;49.476;11.016;2024-01-07T00:32:59;3.87;;;3.00;;
21299;SDS011;10809;49.476;11.016;2024-01-07T00:35:29;4.00;;;2.77;;
21299;SDS011;10809;49.476;11.016;2024-01-07T00:38:00;3.90;;;3.50;;
21299;SDS011;10809;49.476;11.016;2024-01-07T00:40:30;3.73;;;2.87;;
21299;SDS011;10809;49.476;11.016;2024-01-07T00:43:00;3.60;;;3.27;;
21299;SDS011;10809;49.476;11.016;2024-01-07T00:45:31;4.87;;;3.10;;
21299;SDS011;10809;49.476;11.016;2024-01-07T00:48:01;5.30;;;3.50;;
21299;SDS011;10809;49.476;11.016;2024-01-07T00:50:32;3.40;;;3.10;;
21299;SDS011;10809;49.476;11.016;2024-01-07T00:53:02;5.80;;;3.87;;
21299;SDS011;10809;49.476;11.016;2024-01-07T00:55:32;3.40;;;3.17;;
21299;SDS011;10809;49.476;11.016;2024-01-07T00:58:03;4.47;;;3.30;;
21299;SDS011;10809;49.476;11.016;2024-01-07T01:00:33;5.50;;;3.00;;
21299;SDS011;10809;49.476;11.016;2024-01-07T01:03:03;4.27;;;3.10;;
21299;SDS011;10809;49.476;11.016;2024-01-07T01:05:34;5.63;;;3.67;;
21299;SDS011;10809;49.476;11.016;2024-01-07T01:08:04;3.67;;;2.87;;
21299;SDS011;10809;49.476;11.016;2024-01-07T01:10:35;4.37;;;3.33;;
21299;SDS011;10809;49.476;11.016;2024-01-07T01:13:05;3.50;;;3.03;;
21299;SDS011;10809;49.476;11.016;2024-01-07T01:15:35;3.43;;;3.13;;
21299;SDS011;10809;49.476;11.016;2024-01-07T01:18:06;3.93;;;2.80;;
21299;SDS011;10809;49.476;11.016;2024-01-07T01:20:36;3.57;;;3.17;;
21299;SDS011;10809;49.476;11.016;2024-01-07T01:23:06;3.87;;;3.00;;
21299;SDS011;10809;49.476;11.016;2024-01-07T01:25:40;3.70;;;3.30;;
21299;SDS011;10809;49.476;11.016;2024-01-07T01:28:10;3.40;;;3.00;;
21299;SDS011;10809;49.476;11.016;2024-01-07T01:30:40;3.77;;;3.30;;
21299;SDS011;10809;49.476;11.016;2024-01-07T01:33:11;3.60;;;3.10;;
21299;SDS011;10809;49.476;11.016;2024-01-07T01:35:41;3.40;;;3.10;;
21299;SDS011;10809;49.476;11.016;2024-01-07T01:38:11;3.80;;;3.47;;
21299;SDS011;10809;49.476;11.016;2024-01-07T01:40:42;3.50;;;3.20;;
21299;SDS011;10809;49.476;11.016;2024-01-07T01:43:12;4.03;;;3.17;;
21299;SDS011;10809;49.476;11.016;2024-01-07T01:45:42;3.83;;;3.50;;
21299;SDS011;10809;49.476;11.016;2024-01-07T01:48:16;3.87;;;3.30;;
21299;SDS011;10809;49.476;11.016;2024-01-07T01:50:47;3.83;;;3.00;;
21299;SDS011;10809;49.476;11.016;2024-01-07T01:53:17;3.90;;;3.50;;
21299;SDS011;10809;49.476;11.016;2024-01-07T01:55:48;3.77;;;3.30;;
21299;SDS011;10809;49.476;11.016;2024-01-07T01:58:19;3.17;;;2.87;;
21299;SDS011;10809;49.476;11.016;2024-01-07T02:00:50;4.53;;;3.50;;
21299;SDS011;10809;49.476;11.016;2024-01-07T02:03:21;4.20;;;3.70;;
21299;SDS011;10809;49.476;11.016;2024-01-07T02:05:56;3.47;;;3.10;;
21299;SDS011;10809;49.476;11.016;2024-01-07T02:08:27;3.47;;;3.17;;
21299;SDS011;10809;49.476;11.016;2024-01-07T02:11:13;3.37;;;2.97;;
21299;SDS011;10809;49.476;11.016;2024-01-07T02:13:44;3.17;;;2.87;;
21299;SDS011;10809;49.476;11.016;2024-01-07T02:16:14;3.40;;;3.03;;
21299;SDS011;10809;49.476;11.016;2024-01-07T02:18:45;3.50;;;2.80;;
21299;SDS011;10809;49.476;11.016;2024-01-07T02:21:16;3.53;;;3.23;;
21299;SDS011;10809;49.476;11.016;2024-01-07T02:23:46;5.27;;;3.40;;
21299;SDS011;10809;49.476;11.016;2024-01-07T02:26:17;5.13;;;3.20;;
21299;SDS011;10809;49.476;11.016;2024-01-07T02:28:47;4.43;;;3.47;;
21299;SDS011;10809;49.476;11.016;2024-01-07T02:31:17;4.00;;;3.60;;
21299;SDS011;10809;49.476;11.016;2024-01-07T02:33:48;3.83;;;3.23;;
21299;SDS011;10809;49.476;11.016;2024-01-07T02:36:19;5.00;;;4.10;;
21299;SDS011;10809;49.476;11.016;2024-01-07T02:38:49;5.13;;;3.70;;
21299;SDS011;10809;49.476;11.016;2024-01-07T02:41:19;6.30;;;3.90;;
21299;SDS011;10809;49.476;11.016;2024-01-07T02:43:51;4.60;;;3.83;;
21299;SDS011;10809;49.476;11.016;2024-01-07T02:46:27;4.03;;;3.53;;
21299;SDS011;10809;49.476;11.016;2024-01-07T02:49:01;6.30;;;4.23;;
21299;SDS011;10809;49.476;11.016;2024-01-07T02:51:34;5.20;;;4.00;;
21299;SDS011;10809;49.476;11.016;2024-01-07T02:54:04;3.83;;;3.37;;
21299;SDS011;10809;49.476;11.016;2024-01-07T02:56:38;4.77;;;4.03;;
21299;SDS011;10809;49.476;11.016;2024-01-07T02:59:08;4.20;;;3.63;;
21299;SDS011;10809;49.476;11.016;2024-01-07T03:01:38;5.77;;;3.43;;
21299;SDS011;10809;49.476;11.016;2024-01-07T03:04:15;3.27;;;2.97;;
21299;SDS011;10809;49.476;11.016;2024-01-07T03:06:46;4.60;;;3.37;;
21299;SDS011;10809;49.476;11.016;2024-01-07T03:09:16;4.43;;;3.30;;
21299;SDS011;10809;49.476;11.016;2024-01-07T03:11:50;3.40;;;3.03;;
21299;SDS011;10809;49.476;11.016;2024-01-07T03:14:20;3.80;;;3.40;;
21299;SDS011;10809;49.476;11.016;2024-01-07T03:16:51;3.50;;;2.93;;
21299;SDS011;10809;49.476;11.016;2024-01-07T03:19:21;3.03;;;2.73;;
21299;SDS011;10809;49.476;11.016;2024-01-07T03:21:53;5.17;;;3.47;;
21299;SDS011;10809;49.476;11.016;2024-01-07T03:24:23;4.53;;;3.27;;
21299;SDS011;10809;49.476;11.016;2024-01-07T03:26:53;3.47;;;2.80;;
21299;SDS011;10809;49.476;11.016;2024-01-07T03:29:24;4.93;;;2.60;;
21299;SDS011;10809;49.476;11.016;2024-01-07T03:31:57;4.57;;;3.30;;
21299;SDS011;10809;49.476;11.016;2024-01-07T03:34:27;5.57;;;3.90;;
21299;SDS011;10809;49.476;11.016;2024-01-07T03:39:34;5.63;;;3.73;;
21299;SDS011;10809;49.476;11.016;2024-01-07T03:42:05;4.87;;;3.53;;
21299;SDS011;10809;49.476;11.016;2024-01-07T03:44:41;4.47;;;3.53;;
21299;SDS011;10809;49.476;11.016;2024-01-07T03:47:11;3.67;;;3.27;;
21299;SDS011;10809;49.476;11.016;2024-01-07T03:49:41;4.77;;;3.27;;
21299;SDS011;10809;49.476;11.016;2024-01-07T03:52:15;4.30;;;3.27;;
21299;SDS011;10809;49.476;11.016;2024-01-07T03:54:45;3.43;;;2.70;;
21299;SDS011;10809;49.476;11.016;2024-01-07T03:57:15;3.77;;;2.60;;
21299;SDS011;10809;49.476;11.016;2024-01-07T03:59:46;3.93;;;3.00;;
21299;SDS011;10809;49.476;11.016;2024-01-07T04:02:16;3.03;;;2.53;;
21299;SDS011;10809;49.476;11.016;2024-01-07T04:04:49;4.53;;;3.00;;
21299;SDS011;10809;49.476;11.016;2024-01-07T04:07:23;3.00;;;2.50;;
21299;SDS011;10809;49.476;11.016;2024-01-07T04:09:53;3.30;;;3.00;;
21299;SDS011;10809;49.476;11.016;2024-01-07T04:12:23;3.10;;;2.63;;
21299;SDS011;10809;49.476;11.016;2024-01-07T04:14:53;4.30;;;2.97;;
21299;SDS011;10809;49.476;11.016;2024-01-07T04:17:24;4.07;;;3.07;;
21299;SDS011;10809;49.476;11.016;2024-01-07T04:19:54;4.67;;;3.50;;
21299;SDS011;10809;49.476;11.016;2024-01-07T04:22:25;3.93;;;3.17;;
21299;SDS011;10809;49.476;11.016;2024-01-07T04:24:56;3.87;;;3.03;;
21299;SDS011;10809;49.476;11.016;2024-01-07T04:27:26;6.37;;;4.10;;
21299;SDS011;10809;49.476;11.016;2024-01-07T04:29:56;4.33;;;3.43;;
21299;SDS011;10809;49.476;11.016;2024-01-07T04:32:27;5.33;;;3.90;;
21299;SDS011;10809;49.476;11.016;2024-01-07T04:34:57;4.30;;;3.37;;
21299;SDS011;10809;49.476;11.016;2024-01-07T04:37:28;4.67;;;3.40;;
21299;SDS011;10809;49.476;11.016;2024-01-07T04:39:58;4.87;;;3.33;;
21299;SDS011;10809;49.476;11.016;2024-01-07T04:42:31;4.47;;;3.33;;
21299;SDS011;10809;49.476;11.016;2024-01-07T04:45:02;4.27;;;3.40;;
21299;SDS011;10809;49.476;11.016;2024-01-07T04:47:33;3.30;;;2.87;;
21299;SDS011;10809;49.476;11.016;2024-01-07T04:50:07;3.73;;;2.77;;
21299;SDS011;10809;49.476;11.016;2024-01-07T04:52:37;4.33;;;3.00;;
21299;SDS011;10809;49.476;11.016;2024-01-07T04:55:07;4.47;;;3.10;;
21299;SDS011;10809;49.476;11.016;2024-01-07T04:57:39;4.00;;;3.00;;
21299;SDS011;10809;49.476;11.016;2024-01-07T05:00:13;5.83;;;3.27;;
21299;SDS011;10809;49.476;11.016;2024-01-07T05:02:43;5.00;;;2.80;;
21299;SDS011;10809;49.476;11.016;2024-01-07T05:05:16;3.60;;;3.07;;
21299;SDS011;10809;49.476;11.016;2024-01-07T05:07:47;3.47;;;2.50;;
21299;SDS011;10809;49.476;11.016;2024-01-07T05:10:20;3.27;;;2.80;;
21299;SDS011;10809;49.476;11.016;2024-01-07T05:12:50;3.60;;;2.90;;
21299;SDS011;10809;49.476;11.016;2024-01-07T05:15:21;4.97;;;3.40;;
21299;SDS011;10809;49.476;11.016;2024-01-07T05:18:00;4.27;;;3.07;;
21299;SDS011;10809;49.476;11.016;2024-01-07T05:20:31;4.60;;;3.30;;
21299;SDS011;10809;49.476;11.016;2024-01-07T05:23:01;4.20;;;3.30;;
21299;SDS011;10809;49.476;11.016;2024-01-07T05:25:32;4.27;;;3.53;;
21299;SDS011;10809;49.476;11.016;2024-01-07T05:28:02;3.47;;;3.17;;
21299;SDS011;10809;49.476;11.016;2024-01-07T05:30:33;4.70;;;3.33;;
21299;SDS011;10809;49.476;11.016;2024-01-07T05:33:03;5.07;;;4.27;;
21299;SDS011;10809;49.476;11.016;2024-01-07T05:35:33;3.80;;;3.17;;
21299;SDS011;10809;49.476;11.016;2024-01-07T05:38:04;5.43;;;3.83;;
21299;SDS011;10809;49.476;11.016;2024-01-07T05:40:35;5.33;;;3.37;;
21299;SDS011;10809;49.476;11.016;2024-01-07T05:43:05;3.57;;;2.90;;
21299;SDS011;10809;49.476;11.016;2024-01-07T05:45:35;2.90;;;2.40;;
21299;SDS011;10809;49.476;11.016;2024-01-07T05:48:06;4.83;;;3.10;;
21299;SDS011;10809;49.476;11.016;2024-01-07T05:50:36;4.97;;;3.23;;
21299;SDS011;10809;49.476;11.016;2024-01-07T05:53:07;5.30;;;3.57;;
21299;SDS011;10809;49.476;11.016;2024-01-07T05:55:37;5.53;;;3.43;;
21299;SDS011;10809;49.476;11.016;2024-01-07T05:58:07;4.73;;;3.40;;
21299;SDS011;10809;49.476;11.016;2024-01-07T06:00:38;5.60;;;3.23;;
21299;SDS011;10809;49.476;11.016;2024-01-07T06:03:10;8.23;;;4.50;;
21299;SDS011;10809;49.476;11.016;2024-01-07T06:05:40;5.80;;;3.87;;
21299;SDS011;10809;49.476;11.016;2024-01-07T06:08:10;7.03;;;4.67;;
21299;SDS011;10809;49.476;11.016;2024-01-07T06:10:44;5.13;;;3.60;;
21299;SDS011;10809;49.476;11.016;2024-01-07T06:13:17;5.30;;;3.90;;
21299;SDS011;10809;49.476;11.016;2024-01-07T06:15:48;6.27;;;3.87;;
21299;SDS011;10809;49.476;11.016;2024-01-07T06:18:18;4.30;;;3.33;;
21299;SDS011;10809;49.476;11.016;2024-01-07T06:20:48;4.10;;;3.00;;
21299;SDS011;10809;49.476;11.016;2024-01-07T06:23:22;4.83;;;3.70;;
21299;SDS011;10809;49.476;11.016;2024-01-07T06:25:52;4.93;;;3.90;;
21299;SDS011;10809;49.476;11.016;2024-01-07T06:28:22;5.10;;;3.67;;
21299;SDS011;10809;49.476;11.016;2024-01-07T06:31:08;6.13;;;3.77;;
21299;SDS011;10809;49.476;11.016;2024-01-07T06:33:38;3.97;;;3.17;;
21299;SDS011;10809;49.476;11.016;2024-01-07T06:36:19;4.60;;;3.40;;
21299;SDS011;10809;49.476;11.016;2024-01-07T06:38:55;4.67;;;3.40;;
21299;SDS011;10809;49.476;11.016;2024-01-07T06:41:25;4.57;;;3.40;;
21299;SDS011;10809;49.476;11.016;2024-01-07T06:43:56;5.37;;;3.87;;
21299;SDS011;10809;49.476;11.016;2024-01-07T06:46:27;5.77;;;3.93;;
21299;SDS011;10809;49.476;11.016;2024-01-07T06:48:57;6.80;;;4.43;;
21299;SDS011;10809;49.476;11.016;2024-01-07T06:51:27;6.50;;;4.30;;
21299;SDS011;10809;49.476;11.016;2024-01-07T06:53:58;7.53;;;5.10;;
21299;SDS011;10809;49.476;11.016;2024-01-07T06:56:28;9.47;;;5.30;;
21299;SDS011;10809;49.476;11.016;2024-01-07T06:58:58;7.77;;;4.67;;
21299;SDS011;10809;49.476;11.016;2024-01-07T07:01:29;6.23;;;4.70;;
21299;SDS011;10809;49.476;11.016;2024-01-07T07:03:59;5.87;;;4.67;;
21299;SDS011;10809;49.476;11.016;2024-01-07T07:06:30;8.07;;;4.90;;
21299;SDS011;10809;49.476;11.016;2024-01-07T07:09:00;6.03;;;4.80;;
21299;SDS011;10809;49.476;11.016;2024-01-07T07:11:31;7.73;;;5.03;;
21299;SDS011;10809;49.476;11.016;2024-01-07T07:14:02;6.47;;;5.17;;
21299;SDS011;10809;49.476;11.016;2024-01-07T07:16:32;6.70;;;4.93;;
21299;SDS011;10809;49.476;11.016;2024-01-07T07:19:02;8.27;;;5.17;;
21299;SDS011;10809;49.476;11.016;2024-01-07T07:21:33;8.37;;;6.00;;
21299;SDS011;10809;49.476;11.016;2024-01-07T07:24:03;7.17;;;5.20;;
21299;SDS011;10809;49.476;11.016;2024-01-07T07:26:34;10.07;;;5.70;;
21299;SDS011;10809;49.476;11.016;2024-01-07T07:29:06;6.47;;;4.60;;
21299;SDS011;10809;49.476;11.016;2024-01-07T07:31:39;6.57;;;4.50;;
21299;SDS011;10809;49.476;11.016;2024-01-07T07:34:10;6.80;;;5.23;;
21299;SDS011;10809;49.476;11.016;2024-01-07T07:36:40;6.83;;;4.30;;
21299;SDS011;10809;49.476;11.016;2024-01-07T07:39:13;5.97;;;3.80;;
21299;SDS011;10809;49.476;11.016;2024-01-07T07:41:45;6.33;;;4.77;;
21299;SDS011;10809;49.476;11.016;2024-01-07T07:44:15;4.27;;;3.63;;
21299;SDS011;10809;49.476;11.016;2024-01-07T07:46:46;4.60;;;3.77;;
21299;SDS011;10809;49.476;11.016;2024-01-07T07:49:16;6.70;;;5.40;;
21299;SDS011;10809;49.476;11.016;2024-01-07T07:51:46;6.47;;;4.47;;
21299;SDS011;10809;49.476;11.016;2024-01-07T07:54:16;9.03;;;5.10;;
21299;SDS011;10809;49.476;11.016;2024-01-07T07:56:47;7.13;;;4.70;;
21299;SDS011;10809;49.476;11.016;2024-01-07T07:59:18;4.63;;;4.13;;
21299;SDS011;10809;49.476;11.016;2024-01-07T08:01:48;6.43;;;4.13;;
21299;SDS011;10809;49.476;11.016;2024-01-07T08:04:20;6.27;;;4.80;;
21299;SDS011;10809;49.476;11.016;2024-01-07T08:06:50;6.77;;;4.13;;
21299;SDS011;10809;49.476;11.016;2024-01-07T08:09:20;6.57;;;4.77;;
21299;SDS011;10809;49.476;11.016;2024-01-07T08:11:50;8.57;;;5.97;;
21299;SDS011;10809;49.476;11.016;2024-01-07T08:14:23;9.67;;;5.87;;
21299;SDS011;10809;49.476;11.016;2024-01-07T08:16:53;10.17;;;6.60;;
21299;SDS011;10809;49.476;11.016;2024-01-07T08:19:24;9.03;;;6.23;;
21299;SDS011;10809;49.476;11.016;2024-01-07T08:21:54;9.57;;;6.50;;
21299;SDS011;10809;49.476;11.016;2024-01-07T08:24:35;10.50;;;6.80;;
21299;SDS011;10809;49.476;11.016;2024-01-07T08:27:05;11.30;;;7.30;;
21299;SDS011;10809;49.476;11.016;2024-01-07T08:29:36;8.90;;;5.80;;
21299;SDS011;10809;49.476;11.016;2024-01-07T08:32:06;9.37;;;6.33;;
21299;SDS011;10809;49.476;11.016;2024-01-07T08:34:38;9.67;;;6.30;;
21299;SDS011;10809;49.476;11.016;2024-01-07T08:37:09;8.00;;;5.50;;
21299;SDS011;10809;49.476;11.016;2024-01-07T08:39:39;8.53;;;6.03;;
21299;SDS011;10809;49.476;11.016;2024-01-07T08:42:15;10.43;;;6.83;;
21299;SDS011;10809;49.476;11.016;2024-01-07T08:44:46;9.97;;;6.70;;
21299;SDS011;10809;49.476;11.016;2024-01-07T08:47:17;8.43;;;6.30;;
21299;SDS011;10809;49.476;11.016;2024-01-07T08:49:47;8.33;;;5.80;;
21299;SDS011;10809;49.476;11.016;2024-01-07T08:52:18;9.03;;;6.27;;
21299;SDS011;10809;49.476;11.016;2024-01-07T08:54:48;6.97;;;5.00;;
21299;SDS011;10809;49.476;11.016;2024-01-07T08:57:18;9.27;;;5.77;;
21299;SDS011;10809;49.476;11.016;2024-01-07T08:59:49;7.70;;;5.10;;
21299;SDS011;10809;49.476;11.016;2024-01-07T09:02:19;8.00;;;5.77;;
21299;SDS011;10809;49.476;11.016;2024-01-07T09:04:49;9.13;;;5.83;;
21299;SDS011;10809;49.476;11.016;2024-01-07T09:07:19;9.60;;;6.00;;
21299;SDS011;10809;49.476;11.016;2024-01-07T09:09:50;11.43;;;5.70;;
21299;SDS011;10809;49.476;11.016;2024-01-07T09:12:21;11.20;;;6.77;;
21299;SDS011;10809;49.476;11.016;2024-01-07T09:14:54;12.17;;;7.97;;
21299;SDS011;10809;49.476;11.016;2024-01-07T09:17:25;12.10;;;7.67;;
21299;SDS011;10809;49.476;11.016;2024-01-07T09:19:55;10.63;;;7.17;;
21299;SDS011;10809;49.476;11.016;2024-01-07T09:22:25;9.13;;;6.17;;
21299;SDS011;10809;49.476;11.016;2024-01-07T09:24:55;11.57;;;7.27;;
21299;SDS011;10809;49.476;11.016;2024-01-07T09:27:26;10.13;;;6.60;;
21299;SDS011;10809;49.476;11.016;2024-01-07T09:29:56;10.53;;;7.03;;
21299;SDS011;10809;49.476;11.016;2024-01-07T09:32:26;9.80;;;6.53;;
21299;SDS011;10809;49.476;11.016;2024-01-07T09:34:57;11.00;;;6.77;;
21299;SDS011;10809;49.476;11.016;2024-01-07T09:37:28;9.13;;;6.27;;
21299;SDS011;10809;49.476;11.016;2024-01-07T09:40:04;10.53;;;7.33;;
21299;SDS011;10809;49.476;11.016;2024-01-07T09:42:36;13.37;;;8.43;;
21299;SDS011;10809;49.476;11.016;2024-01-07T09:45:06;11.93;;;7.30;;
21299;SDS011;10809;49.476;11.016;2024-01-07T09:47:37;11.40;;;6.83;;
21299;SDS011;10809;49.476;11.016;2024-01-07T09:50:07;11.53;;;7.60;;
21299;SDS011;10809;49.476;11.016;2024-01-07T09:52:45;10.23;;;7.43;;
21299;SDS011;10809;49.476;11.016;2024-01-07T09:55:22;12.40;;;7.67;;
21299;SDS011;10809;49.476;11.016;2024-01-07T09:58:00;12.13;;;8.10;;
21299;SDS011;10809;49.476;11.016;2024-01-07T10:00:30;11.83;;;7.53;;
21299;SDS011;10809;49.476;11.016;2024-01-07T10:03:02;11.23;;;7.03;;
21299;SDS011;10809;49.476;11.016;2024-01-07T10:05:33;12.13;;;6.37;;
21299;SDS011;10809;49.476;11.016;2024-01-07T10:08:03;11.83;;;7.40;;
21299;SDS011;10809;49.476;11.016;2024-01-07T10:10:35;9.33;;;7.20;;
21299;SDS011;10809;49.476;11.016;2024-01-07T10:13:05;11.90;;;7.50;;
21299;SDS011;10809;49.476;11.016;2024-01-07T10:15:36;13.50;;;7.53;;
21299;SDS011;10809;49.476;11.016;2024-01-07T10:18:06;12.07;;;7.53;;
21299;SDS011;10809;49.476;11.016;2024-01-07T10:20:40;10.20;;;6.90;;
21299;SDS011;10809;49.476;11.016;2024-01-07T10:23:11;13.73;;;8.03;;
21299;SDS011;10809;49.476;11.016;2024-01-07T10:25:41;10.87;;;6.73;;
21299;SDS011;10809;49.476;11.016;2024-01-07T10:28:11;11.43;;;6.97;;
21299;SDS011;10809;49.476;11.016;2024-01-07T10:30:50;11.53;;;6.20;;
21299;SDS011;10809;49.476;11.016;2024-01-07T10:33:21;10.03;;;6.53;;
21299;SDS011;10809;49.476;11.016;2024-01-07T10:35:57;9.53;;;6.90;;
21299;SDS011;10809;49.476;11.016;2024-01-07T10:38:34;10.60;;;6.63;;
21299;SDS011;10809;49.476;11.016;2024-01-07T10:41:08;11.87;;;7.50;;
21299;SDS011;10809;49.476;11.016;2024-01-07T10:43:41;10.40;;;7.50;;
21299;SDS011;10809;49.476;11.016;2024-01-07T10:46:12;13.17;;;8.73;;
21299;SDS011;10809;49.476;11.016;2024-01-07T10:48:54;11.83;;;7.90;;
21299;SDS011;10809;49.476;11.016;2024-01-07T10:51:28;9.17;;;6.77;;
21299;SDS011;10809;49.476;11.016;2024-01-07T10:54:03;11.60;;;7.77;;
21299;SDS011;10809;49.476;11.016;2024-01-07T10:56:44;11.10;;;8.13;;
21299;SDS011;10809;49.476;11.016;2024-01-07T10:59:18;11.63;;;7.00;;
21299;SDS011;10809;49.476;11.016;2024-01-07T11:01:52;8.90;;;5.90;;
21299;SDS011;10809;49.476;11.016;2024-01-07T11:04:26;8.03;;;6.00;;
21299;SDS011;10809;49.476;11.016;2024-01-07T11:07:05;10.57;;;7.47;;
21299;SDS011;10809;49.476;11.016;2024-01-07T11:12:41;11.13;;;6.53;;
21299;SDS011;10809;49.476;11.016;2024-01-07T11:15:11;9.33;;;6.10;;
21299;SDS011;10809;49.476;11.016;2024-01-07T11:18:02;13.00;;;7.57;;
21299;SDS011;10809;49.476;11.016;2024-01-07T11:20:32;11.90;;;7.13;;
21299;SDS011;10809;49.476;11.016;2024-01-07T11:25:57;10.27;;;7.53;;
21299;SDS011;10809;49.476;11.016;2024-01-07T11:31:21;11.23;;;7.70;;
21299;SDS011;10809;49.476;11.016;2024-01-07T11:34:11;11.70;;;7.17;;
21299;SDS011;10809;49.476;11.016;2024-01-07T11:37:13;14.43;;;7.13;;
21299;SDS011;10809;49.476;11.016;2024-01-07T11:39:47;11.07;;;6.43;;
21299;SDS011;10809;49.476;11.016;2024-01-07T11:42:18;12.00;;;7.03;;
21299;SDS011;10809;49.476;11.016;2024-01-07T11:44:49;10.87;;;6.53;;
21299;SDS011;10809;49.476;11.016;2024-01-07T11:47:22;10.63;;;6.77;;
21299;SDS011;10809;49.476;11.016;2024-01-07T11:49:59;9.13;;;6.00;;
21299;SDS011;10809;49.476;11.016;2024-01-07T11:52:31;11.17;;;6.80;;
21299;SDS011;10809;49.476;11.016;2024-01-07T11:55:03;10.70;;;6.87;;
21299;SDS011;10809;49.476;11.016;2024-01-07T11:57:36;9.00;;;6.57;;
21299;SDS011;10809;49.476;11.016;2024-01-07T12:00:07;12.60;;;7.30;;
21299;SDS011;10809;49.476;11.016;2024-01-07T12:02:42;30.17;;;14.73;;
21299;SDS011;10809;49.476;11.016;2024-01-07T12:05:12;20.57;;;11.27;;
21299;SDS011;10809;49.476;11.016;2024-01-07T12:07:45;14.30;;;8.83;;
21299;SDS011;10809;49.476;11.016;2024-01-07T12:10:15;10.47;;;6.60;;
21299;SDS011;10809;49.476;11.016;2024-01-07T12:12:47;9.60;;;6.03;;
21299;SDS011;10809;49.476;11.016;2024-01-07T12:15:19;8.23;;;6.03;;
21299;SDS011;10809;49.476;11.016;2024-01-07T12:17:57;9.90;;;5.77;;
21299;SDS011;10809;49.476;11.016;2024-01-07T12:20:28;8.77;;;6.00;;
21299;SDS011;10809;49.476;11.016;2024-01-07T12:23:05;8.47;;;5.80;;
21299;SDS011;10809;49.476;11.016;2024-01-07T12:25:36;8.07;;;6.03;;
21299;SDS011;10809;49.476;11.016;2024-01-07T12:28:07;10.50;;;5.77;;
21299;SDS011;10809;49.476;11.016;2024-01-07T12:30:37;9.03;;;5.47;;
21299;SDS011;10809;49.476;11.016;2024-01-07T12:33:08;8.40;;;6.10;;
21299;SDS011;10809;49.476;11.016;2024-01-07T12:35:38;9.40;;;5.20;;
21299;SDS011;10809;49.476;11.016;2024-01-07T12:38:12;9.60;;;5.47;;
21299;SDS011;10809;49.476;11.016;2024-01-07T12:40:45;8.33;;;5.83;;
21299;SDS011;10809;49.476;11.016;2024-01-07T12:43:19;7.10;;;5.30;;
21299;SDS011;10809;49.476;11.016;2024-01-07T12:45:50;9.07;;;6.40;;
21299;SDS011;10809;49.476;11.016;2024-01-07T12:48:20;8.90;;;5.50;;
21299;SDS011;10809;49.476;11.016;2024-01-07T12:50:51;10.23;;;6.73;;
21299;SDS011;10809;49.476;11.016;2024-01-07T12:53:21;7.97;;;5.80;;
21299;SDS011;10809;49.476;11.016;2024-01-07T12:55:52;11.30;;;6.23;;
21299;SDS011;10809;49.476;11.016;2024-01-07T12:58:26;8.13;;;5.27;;
21299;SDS011;10809;49.476;11.016;2024-01-07T13:00:56;9.63;;;5.57;;
21299;SDS011;10809;49.476;11.016;2024-01-07T13:03:27;7.73;;;5.27;;
21299;SDS011;10809;49.476;11.016;2024-01-07T13:05:57;7.90;;;5.43;;
21299;SDS011;10809;49.476;11.016;2024-01-07T13:08:31;8.00;;;4.93;;
21299;SDS011;10809;49.476;11.016;2024-01-07T13:11:03;6.87;;;4.77;;
21299;SDS011;10809;49.476;11.016;2024-01-07T13:13:37;7.47;;;4.57;;
21299;SDS011;10809;49.476;11.016;2024-01-07T13:16:07;7.17;;;4.20;;
21299;SDS011;10809;49.476;11.016;2024-01-07T13:18:37;7.93;;;3.97;;
21299;SDS011;10809;49.476;11.016;2024-01-07T13:21:08;6.93;;;4.80;;
21299;SDS011;10809;49.476;11.016;2024-01-07T13:23:41;6.33;;;4.10;;
21299;SDS011;10809;49.476;11.016;2024-01-07T13:26:14;6.67;;;4.37;;
21299;SDS011;10809;49.476;11.016;2024-01-07T13:28:45;5.40;;;3.90;;
21299;SDS011;10809;49.476;11.016;2024-01-07T13:31:15;5.00;;;3.73;;
21299;SDS011;10809;49.476;11.016;2024-01-07T13:33:46;5.70;;;3.60;;
21299;SDS011;10809;49.476;11.016;2024-01-07T13:36:19;6.20;;;4.43;;
21299;SDS011;10809;49.476;11.016;2024-01-07T13:38:50;6.67;;;4.77;;
21299;SDS011;10809;49.476;11.016;2024-01-07T13:41:21;7.50;;;4.33;;
21299;SDS011;10809;49.476;11.016;2024-01-07T13:43:52;6.20;;;4.40;;
21299;SDS011;10809;49.476;11.016;2024-01-07T13:46:22;5.17;;;3.80;;
21299;SDS011;10809;49.476;11.016;2024-01-07T13:48:55;7.47;;;4.53;;
21299;SDS011;10809;49.476;11.016;2024-01-07T13:51:25;6.43;;;4.60;;
21299;SDS011;10809;49.476;11.016;2024-01-07T13:53:56;6.20;;;4.40;;
21299;SDS011;10809;49.476;11.016;2024-01-07T13:56:26;6.63;;;3.73;;
21299;SDS011;10809;49.476;11.016;2024-01-07T13:58:58;6.77;;;4.37;;
21299;SDS011;10809;49.476;11.016;2024-01-07T14:01:31;4.17;;;3.50;;
21299;SDS011;10809;49.476;11.016;2024-01-07T14:04:02;5.03;;;3.50;;
21299;SDS011;10809;49.476;11.016;2024-01-07T14:06:33;6.13;;;3.67;;
21299;SDS011;10809;49.476;11.016;2024-01-07T14:09:04;7.53;;;4.27;;
21299;SDS011;10809;49.476;11.016;2024-01-07T14:11:36;6.43;;;3.87;;
21299;SDS011;10809;49.476;11.016;2024-01-07T14:14:06;8.53;;;5.60;;
21299;SDS011;10809;49.476;11.016;2024-01-07T14:16:37;10.10;;;6.63;;
21299;SDS011;10809;49.476;11.016;2024-01-07T14:19:07;11.20;;;5.63;;
21299;SDS011;10809;49.476;11.016;2024-01-07T14:21:37;6.20;;;3.83;;
21299;SDS011;10809;49.476;11.016;2024-01-07T14:24:08;4.27;;;3.57;;
21299;SDS011;10809;49.476;11.016;2024-01-07T14:26:38;3.43;;;3.13;;
21299;SDS011;10809;49.476;11.016;2024-01-07T14:29:08;5.27;;;3.20;;
21299;SDS011;10809;49.476;11.016;2024-01-07T14:31:39;4.83;;;3.20;;
21299;SDS011;10809;49.476;11.016;2024-01-07T14:34:09;4.73;;;3.00;;
21299;SDS011;10809;49.476;11.016;2024-01-07T14:36:42;4.57;;;2.93;;
21299;SDS011;10809;49.476;11.016;2024-01-07T14:39:13;3.93;;;3.43;;
21299;SDS011;10809;49.476;11.016;2024-01-07T14:41:44;3.80;;;3.40;;
21299;SDS011;10809;49.476;11.016;2024-01-07T14:44:15;3.67;;;2.93;;
21299;SDS011;10809;49.476;11.016;2024-01-07T14:46:45;3.73;;;3.07;;
21299;SDS011;10809;49.476;11.016;2024-01-07T14:49:15;5.27;;;3.20;;
21299;SDS011;10809;49.476;11.016;2024-01-07T14:51:46;3.73;;;3.10;;
21299;SDS011;10809;49.476;11.016;2024-01-07T14:54:16;7.03;;;4.13;;
21299;SDS011;10809;49.476;11.016;2024-01-07T14:56:47;4.27;;;3.57;;
21299;SDS011;10809;49.476;11.016;2024-01-07T14:59:17;4.77;;;3.77;;
21299;SDS011;10809;49.476;11.016;2024-01-07T15:01:48;4.80;;;3.60;;
21299;SDS011;10809;49.476;11.016;2024-01-07T15:04:18;5.10;;;3.60;;
21299;SDS011;10809;49.476;11.016;2024-01-07T15:06:48;7.63;;;3.80;;